sensor_id;sensor_type;location;lat;lon;timestamp;P1;durP1;ratioP1;P2;durP2;ratioP2
16667;SDS011;8447;52.630;4.734;2023-01-29T00:00:21;5.70;;;2.53;;
16667;SDS011;8447;52.630;4.734;2023-01-29T00:02:48;4.83;;;2.87;;
16667;SDS011;8447;52.630;4.734;2023-01-29T00:05:14;3.43;;;2.33;;
16667;SDS011;8447;52.630;4.734;2023-01-29T00:07:40;2.70;;;2.40;;
16667;SDS011;8447;52.630;4.734;2023-01-29T00:10:08;2.60;;;2.40;;
16667;SDS011;8447;52.630;4.734;2023-01-29T00:12:35;7.80;;;3.50;;
16667;SDS011;8447;52.630;4.734;2023-01-29T00:15:01;2.20;;;2.00;;
16667;SDS011;8447;52.630;4.734;2023-01-29T00:17:29;4.77;;;2.37;;
16667;SDS011;8447;52.630;4.734;2023-01-29T00:19:56;2.40;;;2.03;;
16667;SDS011;8447;52.630;4.734;2023-01-29T00:22:22;4.03;;;2.60;;
16667;SDS011;8447;52.630;4.734;2023-01-29T00:24:49;3.17;;;2.23;;
16667;SDS011;8447;52.630;4.734;2023-01-29T00:27:15;3.87;;;2.53;;
16667;SDS011;8447;52.630;4.734;2023-01-29T00:29:42;3.03;;;2.27;;
16667;SDS011;8447;52.630;4.734;2023-01-29T00:32:26;3.00;;;2.30;;
16667;SDS011;8447;52.630;4.734;2023-01-29T00:34:54;3.60;;;2.37;;
16667;SDS011;8447;52.630;4.734;2023-01-29T00:37:20;2.83;;;2.50;;
16667;SDS011;8447;52.630;4.734;2023-01-29T00:39:47;5.33;;;2.53;;
16667;SDS011;8447;52.630;4.734;2023-01-29T00:42:13;6.13;;;2.60;;
16667;SDS011;8447;52.630;4.734;2023-01-29T00:44:57;3.57;;;2.57;;
16667;SDS011;8447;52.630;4.734;2023-01-29T00:47:23;3.87;;;2.50;;
16667;SDS011;8447;52.630;4.734;2023-01-29T00:49:58;2.53;;;2.33;;
16667;SDS011;8447;52.630;4.734;2023-01-29T00:52:25;3.80;;;2.07;;
16667;SDS011;8447;52.630;4.734;2023-01-29T00:54:52;2.47;;;2.03;;
16667;SDS011;8447;52.630;4.734;2023-01-29T00:57:19;1.90;;;1.70;;
16667;SDS011;8447;52.630;4.734;2023-01-29T00:59:45;2.77;;;1.70;;
16667;SDS011;8447;52.630;4.734;2023-01-29T01:02:11;3.20;;;2.40;;
16667;SDS011;8447;52.630;4.734;2023-01-29T01:04:55;3.37;;;2.50;;
16667;SDS011;8447;52.630;4.734;2023-01-29T01:07:23;4.17;;;2.57;;
16667;SDS011;8447;52.630;4.734;2023-01-29T01:09:50;4.43;;;2.27;;
16667;SDS011;8447;52.630;4.734;2023-01-29T01:12:33;2.07;;;1.90;;
16667;SDS011;8447;52.630;4.734;2023-01-29T01:15:00;3.47;;;2.20;;
16667;SDS011;8447;52.630;4.734;2023-01-29T01:17:26;2.30;;;1.90;;
16667;SDS011;8447;52.630;4.734;2023-01-29T01:19:53;3.33;;;1.93;;
16667;SDS011;8447;52.630;4.734;2023-01-29T01:22:19;3.43;;;2.30;;
16667;SDS011;8447;52.630;4.734;2023-01-29T01:24:47;2.57;;;2.37;;
16667;SDS011;8447;52.630;4.734;2023-01-29T01:27:14;2.30;;;2.10;;
16667;SDS011;8447;52.630;4.734;2023-01-29T01:29:41;1.77;;;1.67;;
16667;SDS011;8447;52.630;4.734;2023-01-29T01:32:08;2.47;;;2.27;;
16667;SDS011;8447;52.630;4.734;2023-01-29T01:34:34;2.00;;;1.90;;
16667;SDS011;8447;52.630;4.734;2023-01-29T01:37:01;3.50;;;2.10;;
16667;SDS011;8447;52.630;4.734;2023-01-29T01:39:27;2.53;;;1.73;;
16667;SDS011;8447;52.630;4.734;2023-01-29T01:41:55;2.63;;;1.90;;
16667;SDS011;8447;52.630;4.734;2023-01-29T01:47:06;2.63;;;1.73;;
16667;SDS011;8447;52.630;4.734;2023-01-29T01:49:33;2.50;;;1.70;;
16667;SDS011;8447;52.630;4.734;2023-01-29T01:51:59;3.20;;;2.10;;
16667;SDS011;8447;52.630;4.734;2023-01-29T01:54:26;1.97;;;1.50;;
16667;SDS011;8447;52.630;4.734;2023-01-29T01:56:55;4.20;;;1.80;;
16667;SDS011;8447;52.630;4.734;2023-01-29T01:59:29;2.40;;;2.00;;
16667;SDS011;8447;52.630;4.734;2023-01-29T02:01:56;2.30;;;1.73;;
16667;SDS011;8447;52.630;4.734;2023-01-29T02:04:24;2.87;;;1.80;;
16667;SDS011;8447;52.630;4.734;2023-01-29T02:07:09;3.10;;;2.23;;
16667;SDS011;8447;52.630;4.734;2023-01-29T02:09:54;3.00;;;2.30;;
16667;SDS011;8447;52.630;4.734;2023-01-29T02:12:23;3.30;;;2.23;;
16667;SDS011;8447;52.630;4.734;2023-01-29T02:14:49;3.43;;;1.87;;
16667;SDS011;8447;52.630;4.734;2023-01-29T02:17:16;2.80;;;2.00;;
16667;SDS011;8447;52.630;4.734;2023-01-29T02:19:46;2.10;;;1.90;;
16667;SDS011;8447;52.630;4.734;2023-01-29T02:22:22;4.73;;;2.10;;
16667;SDS011;8447;52.630;4.734;2023-01-29T02:24:58;3.67;;;2.10;;
16667;SDS011;8447;52.630;4.734;2023-01-29T02:27:39;3.50;;;2.23;;
16667;SDS011;8447;52.630;4.734;2023-01-29T02:30:08;2.97;;;2.07;;
16667;SDS011;8447;52.630;4.734;2023-01-29T02:32:40;2.43;;;1.70;;
16667;SDS011;8447;52.630;4.734;2023-01-29T02:35:24;3.40;;;2.27;;
16667;SDS011;8447;52.630;4.734;2023-01-29T02:37:56;2.60;;;2.13;;
16667;SDS011;8447;52.630;4.734;2023-01-29T02:40:25;2.90;;;2.03;;
16667;SDS011;8447;52.630;4.734;2023-01-29T02:42:54;3.37;;;2.53;;
16667;SDS011;8447;52.630;4.734;2023-01-29T02:45:26;2.67;;;2.20;;
16667;SDS011;8447;52.630;4.734;2023-01-29T02:47:54;2.50;;;2.30;;
16667;SDS011;8447;52.630;4.734;2023-01-29T02:50:24;2.50;;;2.30;;
16667;SDS011;8447;52.630;4.734;2023-01-29T02:52:53;2.43;;;2.23;;
16667;SDS011;8447;52.630;4.734;2023-01-29T02:55:24;2.83;;;2.30;;
16667;SDS011;8447;52.630;4.734;2023-01-29T02:57:54;2.60;;;1.97;;
16667;SDS011;8447;52.630;4.734;2023-01-29T03:00:23;2.43;;;2.17;;
16667;SDS011;8447;52.630;4.734;2023-01-29T03:02:53;3.10;;;2.13;;
16667;SDS011;8447;52.630;4.734;2023-01-29T03:05:22;4.97;;;1.70;;
16667;SDS011;8447;52.630;4.734;2023-01-29T03:07:52;3.97;;;2.13;;
16667;SDS011;8447;52.630;4.734;2023-01-29T03:10:22;4.77;;;1.90;;
16667;SDS011;8447;52.630;4.734;2023-01-29T03:12:50;2.67;;;1.90;;
16667;SDS011;8447;52.630;4.734;2023-01-29T03:15:21;2.93;;;1.80;;
16667;SDS011;8447;52.630;4.734;2023-01-29T03:17:52;4.27;;;2.30;;
16667;SDS011;8447;52.630;4.734;2023-01-29T03:20:21;3.47;;;1.90;;
16667;SDS011;8447;52.630;4.734;2023-01-29T03:22:51;3.40;;;1.97;;
16667;SDS011;8447;52.630;4.734;2023-01-29T03:25:20;2.83;;;1.93;;
16667;SDS011;8447;52.630;4.734;2023-01-29T03:28:05;4.20;;;2.77;;
16667;SDS011;8447;52.630;4.734;2023-01-29T03:30:50;3.23;;;2.10;;
16667;SDS011;8447;52.630;4.734;2023-01-29T03:33:38;2.67;;;2.07;;
16667;SDS011;8447;52.630;4.734;2023-01-29T03:36:07;2.33;;;1.80;;
16667;SDS011;8447;52.630;4.734;2023-01-29T03:38:35;2.30;;;1.77;;
16667;SDS011;8447;52.630;4.734;2023-01-29T03:41:03;3.23;;;1.73;;
16667;SDS011;8447;52.630;4.734;2023-01-29T03:43:32;2.13;;;1.87;;
16667;SDS011;8447;52.630;4.734;2023-01-29T03:46:02;2.80;;;2.03;;
16667;SDS011;8447;52.630;4.734;2023-01-29T03:48:30;3.30;;;2.03;;
16667;SDS011;8447;52.630;4.734;2023-01-29T03:51:00;2.40;;;1.83;;
16667;SDS011;8447;52.630;4.734;2023-01-29T03:53:29;2.83;;;1.97;;
16667;SDS011;8447;52.630;4.734;2023-01-29T03:55:57;1.40;;;1.30;;
16667;SDS011;8447;52.630;4.734;2023-01-29T03:58:28;3.47;;;2.43;;
16667;SDS011;8447;52.630;4.734;2023-01-29T04:00:57;2.87;;;1.83;;
16667;SDS011;8447;52.630;4.734;2023-01-29T04:03:25;2.17;;;1.97;;
16667;SDS011;8447;52.630;4.734;2023-01-29T04:05:55;3.03;;;2.10;;
16667;SDS011;8447;52.630;4.734;2023-01-29T04:08:37;3.13;;;2.03;;
16667;SDS011;8447;52.630;4.734;2023-01-29T04:11:07;3.80;;;1.97;;
16667;SDS011;8447;52.630;4.734;2023-01-29T04:13:36;2.40;;;2.10;;
16667;SDS011;8447;52.630;4.734;2023-01-29T04:16:03;3.03;;;2.43;;
16667;SDS011;8447;52.630;4.734;2023-01-29T04:18:31;5.30;;;2.77;;
16667;SDS011;8447;52.630;4.734;2023-01-29T04:20:57;2.57;;;1.93;;
16667;SDS011;8447;52.630;4.734;2023-01-29T04:23:25;3.43;;;2.17;;
16667;SDS011;8447;52.630;4.734;2023-01-29T04:25:56;3.07;;;2.17;;
16667;SDS011;8447;52.630;4.734;2023-01-29T04:28:37;3.73;;;2.00;;
16667;SDS011;8447;52.630;4.734;2023-01-29T04:31:08;3.30;;;2.27;;
16667;SDS011;8447;52.630;4.734;2023-01-29T04:33:38;5.00;;;2.67;;
16667;SDS011;8447;52.630;4.734;2023-01-29T04:36:13;3.33;;;2.47;;
16667;SDS011;8447;52.630;4.734;2023-01-29T04:38:46;2.93;;;2.10;;
16667;SDS011;8447;52.630;4.734;2023-01-29T04:41:18;3.30;;;2.30;;
16667;SDS011;8447;52.630;4.734;2023-01-29T04:43:46;3.87;;;2.40;;
16667;SDS011;8447;52.630;4.734;2023-01-29T04:46:16;2.93;;;2.57;;
16667;SDS011;8447;52.630;4.734;2023-01-29T04:48:47;4.07;;;2.57;;
16667;SDS011;8447;52.630;4.734;2023-01-29T04:51:18;4.93;;;2.90;;
16667;SDS011;8447;52.630;4.734;2023-01-29T04:53:47;2.97;;;2.67;;
16667;SDS011;8447;52.630;4.734;2023-01-29T04:56:17;3.67;;;2.70;;
16667;SDS011;8447;52.630;4.734;2023-01-29T04:58:46;4.33;;;2.60;;
16667;SDS011;8447;52.630;4.734;2023-01-29T05:01:15;3.63;;;2.80;;
16667;SDS011;8447;52.630;4.734;2023-01-29T05:03:42;4.07;;;2.20;;
16667;SDS011;8447;52.630;4.734;2023-01-29T05:06:09;5.27;;;2.70;;
16667;SDS011;8447;52.630;4.734;2023-01-29T05:08:36;4.90;;;2.33;;
16667;SDS011;8447;52.630;4.734;2023-01-29T05:11:04;5.43;;;2.90;;
16667;SDS011;8447;52.630;4.734;2023-01-29T05:13:32;4.30;;;2.60;;
16667;SDS011;8447;52.630;4.734;2023-01-29T05:16:00;3.30;;;2.80;;
16667;SDS011;8447;52.630;4.734;2023-01-29T05:18:27;5.10;;;2.97;;
16667;SDS011;8447;52.630;4.734;2023-01-29T05:20:54;5.10;;;3.20;;
16667;SDS011;8447;52.630;4.734;2023-01-29T05:23:22;3.03;;;2.03;;
16667;SDS011;8447;52.630;4.734;2023-01-29T05:25:48;5.97;;;5.10;;
16667;SDS011;8447;52.630;4.734;2023-01-29T05:28:15;7.53;;;4.30;;
16667;SDS011;8447;52.630;4.734;2023-01-29T05:30:43;5.83;;;5.00;;
16667;SDS011;8447;52.630;4.734;2023-01-29T05:33:11;7.47;;;5.50;;
16667;SDS011;8447;52.630;4.734;2023-01-29T05:35:38;8.73;;;5.37;;
16667;SDS011;8447;52.630;4.734;2023-01-29T05:38:05;9.93;;;5.67;;
16667;SDS011;8447;52.630;4.734;2023-01-29T05:40:31;8.47;;;6.07;;
16667;SDS011;8447;52.630;4.734;2023-01-29T05:42:58;8.53;;;5.23;;
16667;SDS011;8447;52.630;4.734;2023-01-29T05:45:24;6.70;;;4.67;;
16667;SDS011;8447;52.630;4.734;2023-01-29T05:47:55;6.80;;;5.03;;
16667;SDS011;8447;52.630;4.734;2023-01-29T05:50:22;7.53;;;5.50;;
16667;SDS011;8447;52.630;4.734;2023-01-29T05:52:48;6.70;;;5.07;;
16667;SDS011;8447;52.630;4.734;2023-01-29T05:55:14;8.13;;;4.93;;
16667;SDS011;8447;52.630;4.734;2023-01-29T05:57:41;8.57;;;4.63;;
16667;SDS011;8447;52.630;4.734;2023-01-29T06:00:07;7.13;;;5.17;;
16667;SDS011;8447;52.630;4.734;2023-01-29T06:02:34;13.03;;;5.10;;
16667;SDS011;8447;52.630;4.734;2023-01-29T06:05:02;6.87;;;4.93;;
16667;SDS011;8447;52.630;4.734;2023-01-29T06:07:28;9.27;;;5.17;;
16667;SDS011;8447;52.630;4.734;2023-01-29T06:09:55;5.97;;;4.43;;
16667;SDS011;8447;52.630;4.734;2023-01-29T06:12:21;7.17;;;4.97;;
16667;SDS011;8447;52.630;4.734;2023-01-29T06:14:47;6.20;;;3.77;;
16667;SDS011;8447;52.630;4.734;2023-01-29T06:17:14;8.10;;;4.87;;
16667;SDS011;8447;52.630;4.734;2023-01-29T06:19:40;8.93;;;4.93;;
16667;SDS011;8447;52.630;4.734;2023-01-29T06:22:08;11.83;;;5.17;;
16667;SDS011;8447;52.630;4.734;2023-01-29T06:24:34;6.07;;;3.47;;
16667;SDS011;8447;52.630;4.734;2023-01-29T06:27:01;7.40;;;4.17;;
16667;SDS011;8447;52.630;4.734;2023-01-29T06:29:27;7.17;;;4.97;;
16667;SDS011;8447;52.630;4.734;2023-01-29T06:31:53;10.20;;;5.60;;
16667;SDS011;8447;52.630;4.734;2023-01-29T06:34:20;7.47;;;4.43;;
16667;SDS011;8447;52.630;4.734;2023-01-29T06:36:46;6.17;;;4.47;;
16667;SDS011;8447;52.630;4.734;2023-01-29T06:39:14;8.10;;;4.73;;
16667;SDS011;8447;52.630;4.734;2023-01-29T06:41:40;5.93;;;4.43;;
16667;SDS011;8447;52.630;4.734;2023-01-29T06:44:07;5.33;;;4.07;;
16667;SDS011;8447;52.630;4.734;2023-01-29T06:46:33;5.40;;;4.30;;
16667;SDS011;8447;52.630;4.734;2023-01-29T06:48:59;7.40;;;4.10;;
16667;SDS011;8447;52.630;4.734;2023-01-29T06:51:26;6.03;;;4.47;;
16667;SDS011;8447;52.630;4.734;2023-01-29T06:53:52;8.80;;;3.73;;
16667;SDS011;8447;52.630;4.734;2023-01-29T06:56:21;5.10;;;3.77;;
16667;SDS011;8447;52.630;4.734;2023-01-29T06:58:48;8.60;;;4.43;;
16667;SDS011;8447;52.630;4.734;2023-01-29T07:01:14;7.30;;;4.70;;
16667;SDS011;8447;52.630;4.734;2023-01-29T07:03:41;6.00;;;4.80;;
16667;SDS011;8447;52.630;4.734;2023-01-29T07:06:07;6.87;;;4.13;;
16667;SDS011;8447;52.630;4.734;2023-01-29T07:08:34;8.23;;;4.73;;
16667;SDS011;8447;52.630;4.734;2023-01-29T07:11:01;6.10;;;4.40;;
16667;SDS011;8447;52.630;4.734;2023-01-29T07:13:29;9.70;;;5.00;;
16667;SDS011;8447;52.630;4.734;2023-01-29T07:15:56;9.57;;;5.03;;
16667;SDS011;8447;52.630;4.734;2023-01-29T07:18:23;11.30;;;5.33;;
16667;SDS011;8447;52.630;4.734;2023-01-29T07:20:49;6.67;;;4.77;;
16667;SDS011;8447;52.630;4.734;2023-01-29T07:23:16;5.63;;;4.20;;
16667;SDS011;8447;52.630;4.734;2023-01-29T07:25:42;4.80;;;4.30;;
16667;SDS011;8447;52.630;4.734;2023-01-29T07:28:09;7.80;;;4.50;;
16667;SDS011;8447;52.630;4.734;2023-01-29T07:30:36;5.53;;;3.87;;
16667;SDS011;8447;52.630;4.734;2023-01-29T07:33:03;7.13;;;4.90;;
16667;SDS011;8447;52.630;4.734;2023-01-29T07:35:30;4.97;;;4.07;;
16667;SDS011;8447;52.630;4.734;2023-01-29T07:37:56;8.40;;;3.63;;
16667;SDS011;8447;52.630;4.734;2023-01-29T07:40:22;8.70;;;4.17;;
16667;SDS011;8447;52.630;4.734;2023-01-29T07:42:49;6.83;;;3.67;;
16667;SDS011;8447;52.630;4.734;2023-01-29T07:45:15;5.23;;;3.10;;
16667;SDS011;8447;52.630;4.734;2023-01-29T07:47:43;5.87;;;3.70;;
16667;SDS011;8447;52.630;4.734;2023-01-29T07:50:10;7.30;;;3.63;;
16667;SDS011;8447;52.630;4.734;2023-01-29T07:52:36;5.00;;;3.13;;
16667;SDS011;8447;52.630;4.734;2023-01-29T07:55:03;5.57;;;4.00;;
16667;SDS011;8447;52.630;4.734;2023-01-29T07:57:29;7.77;;;4.00;;
16667;SDS011;8447;52.630;4.734;2023-01-29T07:59:56;5.43;;;3.30;;
16667;SDS011;8447;52.630;4.734;2023-01-29T08:02:22;7.20;;;3.97;;
16667;SDS011;8447;52.630;4.734;2023-01-29T08:04:50;4.27;;;3.03;;
16667;SDS011;8447;52.630;4.734;2023-01-29T08:07:16;5.00;;;3.10;;
16667;SDS011;8447;52.630;4.734;2023-01-29T08:09:42;9.23;;;3.77;;
16667;SDS011;8447;52.630;4.734;2023-01-29T08:12:09;7.40;;;3.17;;
16667;SDS011;8447;52.630;4.734;2023-01-29T08:14:35;5.20;;;3.37;;
16667;SDS011;8447;52.630;4.734;2023-01-29T08:17:01;5.67;;;3.10;;
16667;SDS011;8447;52.630;4.734;2023-01-29T08:19:28;6.97;;;3.80;;
16667;SDS011;8447;52.630;4.734;2023-01-29T08:21:56;5.83;;;3.97;;
16667;SDS011;8447;52.630;4.734;2023-01-29T08:24:22;4.43;;;3.20;;
16667;SDS011;8447;52.630;4.734;2023-01-29T08:26:48;6.93;;;3.10;;
16667;SDS011;8447;52.630;4.734;2023-01-29T08:29:15;5.97;;;2.87;;
16667;SDS011;8447;52.630;4.734;2023-01-29T08:31:41;8.07;;;2.70;;
16667;SDS011;8447;52.630;4.734;2023-01-29T08:34:08;4.10;;;2.60;;
16667;SDS011;8447;52.630;4.734;2023-01-29T08:36:34;6.53;;;2.60;;
16667;SDS011;8447;52.630;4.734;2023-01-29T08:39:02;5.03;;;2.27;;
16667;SDS011;8447;52.630;4.734;2023-01-29T08:41:28;2.10;;;1.90;;
16667;SDS011;8447;52.630;4.734;2023-01-29T08:43:55;4.30;;;2.27;;
16667;SDS011;8447;52.630;4.734;2023-01-29T08:46:22;3.27;;;2.07;;
16667;SDS011;8447;52.630;4.734;2023-01-29T08:48:48;4.43;;;2.73;;
16667;SDS011;8447;52.630;4.734;2023-01-29T08:51:14;5.60;;;2.30;;
16667;SDS011;8447;52.630;4.734;2023-01-29T08:53:41;4.03;;;2.67;;
16667;SDS011;8447;52.630;4.734;2023-01-29T08:56:09;3.10;;;2.53;;
16667;SDS011;8447;52.630;4.734;2023-01-29T08:58:35;3.33;;;2.30;;
16667;SDS011;8447;52.630;4.734;2023-01-29T09:01:05;5.30;;;2.83;;
16667;SDS011;8447;52.630;4.734;2023-01-29T09:03:31;8.93;;;2.53;;
16667;SDS011;8447;52.630;4.734;2023-01-29T09:05:58;4.30;;;2.80;;
16667;SDS011;8447;52.630;4.734;2023-01-29T09:08:24;3.67;;;2.53;;
16667;SDS011;8447;52.630;4.734;2023-01-29T09:10:50;3.90;;;2.60;;
16667;SDS011;8447;52.630;4.734;2023-01-29T09:13:18;3.87;;;2.73;;
16667;SDS011;8447;52.630;4.734;2023-01-29T09:15:44;6.43;;;3.67;;
16667;SDS011;8447;52.630;4.734;2023-01-29T09:18:11;7.37;;;3.27;;
16667;SDS011;8447;52.630;4.734;2023-01-29T09:20:37;5.93;;;3.60;;
16667;SDS011;8447;52.630;4.734;2023-01-29T09:23:04;6.33;;;3.93;;
16667;SDS011;8447;52.630;4.734;2023-01-29T09:25:30;6.37;;;3.93;;
16667;SDS011;8447;52.630;4.734;2023-01-29T09:27:57;7.63;;;3.60;;
16667;SDS011;8447;52.630;4.734;2023-01-29T09:30:24;5.80;;;3.00;;
16667;SDS011;8447;52.630;4.734;2023-01-29T09:32:51;4.80;;;2.80;;
16667;SDS011;8447;52.630;4.734;2023-01-29T09:35:17;5.40;;;3.30;;
16667;SDS011;8447;52.630;4.734;2023-01-29T09:37:46;4.40;;;3.33;;
16667;SDS011;8447;52.630;4.734;2023-01-29T09:40:15;4.70;;;2.97;;
16667;SDS011;8447;52.630;4.734;2023-01-29T09:42:47;4.63;;;2.50;;
16667;SDS011;8447;52.630;4.734;2023-01-29T09:45:18;4.20;;;3.07;;
16667;SDS011;8447;52.630;4.734;2023-01-29T09:47:47;6.83;;;3.23;;
16667;SDS011;8447;52.630;4.734;2023-01-29T09:50:14;5.47;;;3.43;;
16667;SDS011;8447;52.630;4.734;2023-01-29T09:52:43;4.57;;;3.07;;
16667;SDS011;8447;52.630;4.734;2023-01-29T09:55:13;5.13;;;2.40;;
16667;SDS011;8447;52.630;4.734;2023-01-29T09:57:45;3.17;;;2.10;;
16667;SDS011;8447;52.630;4.734;2023-01-29T10:00:23;5.80;;;2.30;;
16667;SDS011;8447;52.630;4.734;2023-01-29T10:03:09;3.23;;;2.47;;
16667;SDS011;8447;52.630;4.734;2023-01-29T10:05:47;5.27;;;2.63;;
16667;SDS011;8447;52.630;4.734;2023-01-29T10:10:58;7.50;;;2.87;;
16667;SDS011;8447;52.630;4.734;2023-01-29T10:13:28;4.13;;;2.73;;
16667;SDS011;8447;52.630;4.734;2023-01-29T10:16:01;4.07;;;2.40;;
16667;SDS011;8447;52.630;4.734;2023-01-29T10:18:35;3.40;;;2.47;;
16667;SDS011;8447;52.630;4.734;2023-01-29T10:21:07;4.50;;;2.10;;
16667;SDS011;8447;52.630;4.734;2023-01-29T10:23:38;4.90;;;2.57;;
16667;SDS011;8447;52.630;4.734;2023-01-29T10:26:07;4.10;;;2.63;;
16667;SDS011;8447;52.630;4.734;2023-01-29T10:28:36;4.53;;;3.07;;
16667;SDS011;8447;52.630;4.734;2023-01-29T10:31:06;4.37;;;2.70;;
16667;SDS011;8447;52.630;4.734;2023-01-29T10:33:37;5.70;;;3.20;;
16667;SDS011;8447;52.630;4.734;2023-01-29T10:36:06;3.93;;;2.83;;
16667;SDS011;8447;52.630;4.734;2023-01-29T10:38:35;4.17;;;3.10;;
16667;SDS011;8447;52.630;4.734;2023-01-29T10:41:13;5.00;;;2.97;;
16667;SDS011;8447;52.630;4.734;2023-01-29T10:43:45;5.97;;;3.00;;
16667;SDS011;8447;52.630;4.734;2023-01-29T10:46:18;6.03;;;3.50;;
16667;SDS011;8447;52.630;4.734;2023-01-29T10:48:55;5.93;;;2.93;;
16667;SDS011;8447;52.630;4.734;2023-01-29T10:51:30;2.73;;;2.30;;
16667;SDS011;8447;52.630;4.734;2023-01-29T10:54:02;2.83;;;2.60;;
16667;SDS011;8447;52.630;4.734;2023-01-29T10:56:40;4.37;;;2.73;;
16667;SDS011;8447;52.630;4.734;2023-01-29T10:59:24;4.83;;;2.90;;
16667;SDS011;8447;52.630;4.734;2023-01-29T11:01:56;4.80;;;3.23;;
16667;SDS011;8447;52.630;4.734;2023-01-29T11:04:24;4.27;;;2.77;;
16667;SDS011;8447;52.630;4.734;2023-01-29T11:06:50;4.47;;;3.10;;
16667;SDS011;8447;52.630;4.734;2023-01-29T11:09:19;7.00;;;3.30;;
16667;SDS011;8447;52.630;4.734;2023-01-29T11:11:49;4.97;;;2.70;;
16667;SDS011;8447;52.630;4.734;2023-01-29T11:14:18;5.20;;;3.10;;
16667;SDS011;8447;52.630;4.734;2023-01-29T11:16:46;4.13;;;2.90;;
16667;SDS011;8447;52.630;4.734;2023-01-29T11:19:13;4.90;;;3.20;;
16667;SDS011;8447;52.630;4.734;2023-01-29T11:21:50;3.47;;;2.63;;
16667;SDS011;8447;52.630;4.734;2023-01-29T11:24:17;5.47;;;3.20;;
16667;SDS011;8447;52.630;4.734;2023-01-29T11:26:45;5.23;;;3.03;;
16667;SDS011;8447;52.630;4.734;2023-01-29T11:32:05;5.57;;;2.90;;
16667;SDS011;8447;52.630;4.734;2023-01-29T11:34:32;4.57;;;2.33;;
16667;SDS011;8447;52.630;4.734;2023-01-29T11:37:00;6.83;;;3.77;;
16667;SDS011;8447;52.630;4.734;2023-01-29T11:39:27;6.83;;;3.47;;
16667;SDS011;8447;52.630;4.734;2023-01-29T11:41:55;7.27;;;3.63;;
16667;SDS011;8447;52.630;4.734;2023-01-29T11:44:28;9.60;;;3.57;;
16667;SDS011;8447;52.630;4.734;2023-01-29T11:46:55;3.10;;;2.73;;
16667;SDS011;8447;52.630;4.734;2023-01-29T11:49:26;5.07;;;3.00;;
16667;SDS011;8447;52.630;4.734;2023-01-29T11:51:55;8.60;;;3.17;;
16667;SDS011;8447;52.630;4.734;2023-01-29T11:54:24;6.67;;;3.10;;
16667;SDS011;8447;52.630;4.734;2023-01-29T11:56:52;3.77;;;2.47;;
16667;SDS011;8447;52.630;4.734;2023-01-29T11:59:26;5.93;;;2.73;;
16667;SDS011;8447;52.630;4.734;2023-01-29T12:01:53;4.60;;;2.10;;
16667;SDS011;8447;52.630;4.734;2023-01-29T12:04:21;5.60;;;2.83;;
16667;SDS011;8447;52.630;4.734;2023-01-29T12:06:48;8.47;;;2.90;;
16667;SDS011;8447;52.630;4.734;2023-01-29T12:09:17;6.67;;;2.40;;
16667;SDS011;8447;52.630;4.734;2023-01-29T12:11:46;4.53;;;2.60;;
16667;SDS011;8447;52.630;4.734;2023-01-29T12:14:22;5.80;;;2.43;;
16667;SDS011;8447;52.630;4.734;2023-01-29T12:16:50;4.87;;;2.60;;
16667;SDS011;8447;52.630;4.734;2023-01-29T12:19:20;6.73;;;2.47;;
16667;SDS011;8447;52.630;4.734;2023-01-29T12:21:48;7.73;;;3.07;;
16667;SDS011;8447;52.630;4.734;2023-01-29T12:24:22;6.30;;;2.93;;
16667;SDS011;8447;52.630;4.734;2023-01-29T12:26:52;5.83;;;2.23;;
16667;SDS011;8447;52.630;4.734;2023-01-29T12:29:22;3.47;;;2.33;;
16667;SDS011;8447;52.630;4.734;2023-01-29T12:31:51;3.70;;;2.10;;
16667;SDS011;8447;52.630;4.734;2023-01-29T12:34:23;7.20;;;3.40;;
16667;SDS011;8447;52.630;4.734;2023-01-29T12:36:54;4.33;;;2.33;;
16667;SDS011;8447;52.630;4.734;2023-01-29T12:39:21;5.80;;;2.27;;
16667;SDS011;8447;52.630;4.734;2023-01-29T12:41:49;5.83;;;2.70;;
16667;SDS011;8447;52.630;4.734;2023-01-29T12:44:19;7.10;;;2.80;;
16667;SDS011;8447;52.630;4.734;2023-01-29T12:46:48;3.87;;;2.43;;
16667;SDS011;8447;52.630;4.734;2023-01-29T12:49:17;3.67;;;2.20;;
16667;SDS011;8447;52.630;4.734;2023-01-29T12:51:47;5.20;;;2.20;;
16667;SDS011;8447;52.630;4.734;2023-01-29T12:54:16;4.23;;;2.43;;
16667;SDS011;8447;52.630;4.734;2023-01-29T12:56:45;5.27;;;2.60;;
16667;SDS011;8447;52.630;4.734;2023-01-29T12:59:14;5.97;;;2.70;;
16667;SDS011;8447;52.630;4.734;2023-01-29T13:01:45;6.93;;;2.63;;
16667;SDS011;8447;52.630;4.734;2023-01-29T13:04:14;7.13;;;2.57;;
16667;SDS011;8447;52.630;4.734;2023-01-29T13:06:43;5.33;;;2.93;;
16667;SDS011;8447;52.630;4.734;2023-01-29T13:09:10;7.37;;;3.57;;
16667;SDS011;8447;52.630;4.734;2023-01-29T13:11:38;4.90;;;2.87;;
16667;SDS011;8447;52.630;4.734;2023-01-29T13:14:07;5.93;;;3.07;;
16667;SDS011;8447;52.630;4.734;2023-01-29T13:16:39;9.80;;;3.87;;
16667;SDS011;8447;52.630;4.734;2023-01-29T13:19:12;7.30;;;3.30;;
16667;SDS011;8447;52.630;4.734;2023-01-29T13:21:40;9.03;;;3.37;;
16667;SDS011;8447;52.630;4.734;2023-01-29T13:24:09;11.23;;;3.50;;
16667;SDS011;8447;52.630;4.734;2023-01-29T13:26:36;7.73;;;3.70;;
16667;SDS011;8447;52.630;4.734;2023-01-29T13:29:03;11.17;;;3.63;;
16667;SDS011;8447;52.630;4.734;2023-01-29T13:31:30;8.53;;;3.77;;
16667;SDS011;8447;52.630;4.734;2023-01-29T13:33:59;6.07;;;3.90;;
16667;SDS011;8447;52.630;4.734;2023-01-29T13:36:29;7.23;;;3.37;;
16667;SDS011;8447;52.630;4.734;2023-01-29T13:38:58;10.83;;;3.60;;
16667;SDS011;8447;52.630;4.734;2023-01-29T13:41:32;6.47;;;3.50;;
16667;SDS011;8447;52.630;4.734;2023-01-29T13:43:59;6.90;;;3.50;;
16667;SDS011;8447;52.630;4.734;2023-01-29T13:46:25;8.13;;;4.10;;
16667;SDS011;8447;52.630;4.734;2023-01-29T13:48:52;11.97;;;4.00;;
16667;SDS011;8447;52.630;4.734;2023-01-29T13:51:22;12.30;;;3.80;;
16667;SDS011;8447;52.630;4.734;2023-01-29T13:53:56;10.57;;;3.87;;
16667;SDS011;8447;52.630;4.734;2023-01-29T13:56:39;9.03;;;3.83;;
16667;SDS011;8447;52.630;4.734;2023-01-29T13:59:08;9.47;;;4.07;;
16667;SDS011;8447;52.630;4.734;2023-01-29T14:02:01;6.63;;;3.40;;
16667;SDS011;8447;52.630;4.734;2023-01-29T14:04:29;12.00;;;4.70;;
16667;SDS011;8447;52.630;4.734;2023-01-29T14:06:56;7.07;;;3.93;;
16667;SDS011;8447;52.630;4.734;2023-01-29T14:09:31;10.93;;;4.30;;
16667;SDS011;8447;52.630;4.734;2023-01-29T14:11:58;11.57;;;4.53;;
16667;SDS011;8447;52.630;4.734;2023-01-29T14:14:48;6.80;;;4.03;;
16667;SDS011;8447;52.630;4.734;2023-01-29T14:17:15;10.77;;;4.00;;
16667;SDS011;8447;52.630;4.734;2023-01-29T14:19:45;10.27;;;4.07;;
16667;SDS011;8447;52.630;4.734;2023-01-29T14:22:16;8.17;;;3.60;;
16667;SDS011;8447;52.630;4.734;2023-01-29T14:24:45;13.87;;;4.90;;
16667;SDS011;8447;52.630;4.734;2023-01-29T14:27:13;7.37;;;4.00;;
16667;SDS011;8447;52.630;4.734;2023-01-29T14:29:44;8.57;;;3.90;;
16667;SDS011;8447;52.630;4.734;2023-01-29T14:32:12;6.37;;;3.37;;
16667;SDS011;8447;52.630;4.734;2023-01-29T14:34:40;5.70;;;3.17;;
16667;SDS011;8447;52.630;4.734;2023-01-29T14:37:24;9.67;;;3.47;;
16667;SDS011;8447;52.630;4.734;2023-01-29T14:39:54;8.93;;;3.27;;
16667;SDS011;8447;52.630;4.734;2023-01-29T14:42:22;9.23;;;3.60;;
16667;SDS011;8447;52.630;4.734;2023-01-29T14:44:58;12.97;;;3.53;;
16667;SDS011;8447;52.630;4.734;2023-01-29T14:52:52;7.47;;;3.13;;
16667;SDS011;8447;52.630;4.734;2023-01-29T14:55:23;7.27;;;2.50;;
16667;SDS011;8447;52.630;4.734;2023-01-29T14:57:51;6.53;;;3.30;;
16667;SDS011;8447;52.630;4.734;2023-01-29T15:00:21;8.33;;;3.20;;
16667;SDS011;8447;52.630;4.734;2023-01-29T15:02:48;10.90;;;2.97;;
16667;SDS011;8447;52.630;4.734;2023-01-29T15:05:16;8.20;;;2.90;;
16667;SDS011;8447;52.630;4.734;2023-01-29T15:07:46;8.80;;;2.97;;
16667;SDS011;8447;52.630;4.734;2023-01-29T15:10:15;9.83;;;3.00;;
16667;SDS011;8447;52.630;4.734;2023-01-29T15:12:44;9.53;;;2.60;;
16667;SDS011;8447;52.630;4.734;2023-01-29T15:15:13;8.13;;;2.43;;
16667;SDS011;8447;52.630;4.734;2023-01-29T15:17:40;7.77;;;2.90;;
16667;SDS011;8447;52.630;4.734;2023-01-29T15:20:25;10.23;;;2.90;;
16667;SDS011;8447;52.630;4.734;2023-01-29T15:22:52;8.70;;;2.80;;
16667;SDS011;8447;52.630;4.734;2023-01-29T15:25:18;9.03;;;2.73;;